sensor_id;sensor_type;location;lat;lon;timestamp;pressure;altitude;pressure_sealevel;temperature;humidity
51239;BME280;38154;47.548;18.828;2023-04-27T00:01:47;98902.38;;;0.98;100.00
51239;BME280;38154;47.548;18.828;2023-04-27T00:04:13;98901.72;;;1.02;100.00
51239;BME280;38154;47.548;18.828;2023-04-27T00:06:39;98901.88;;;1.07;100.00
51239;BME280;38154;47.548;18.828;2023-04-27T00:09:04;98905.41;;;1.09;100.00
51239;BME280;38154;47.548;18.828;2023-04-27T00:11:30;98903.78;;;1.11;100.00
51239;BME280;38154;47.548;18.828;2023-04-27T00:13:56;98907.34;;;1.15;100.00
51239;BME280;38154;47.548;18.828;2023-04-27T00:16:21;98907.69;;;1.24;100.00
51239;BME280;38154;47.548;18.828;2023-04-27T00:18:47;98915.78;;;1.33;100.00
51239;BME280;38154;47.548;18.828;2023-04-27T00:21:13;98905.84;;;1.41;100.00
51239;BME280;38154;47.548;18.828;2023-04-27T00:23:38;98904.25;;;1.44;100.00
51239;BME280;38154;47.548;18.828;2023-04-27T00:26:04;98912.78;;;1.43;100.00
51239;BME280;38154;47.548;18.828;2023-04-27T00:28:30;98906.75;;;1.43;100.00
51239;BME280;38154;47.548;18.828;2023-04-27T00:30:56;98905.94;;;1.44;100.00
51239;BME280;38154;47.548;18.828;2023-04-27T00:33:21;98903.44;;;1.45;100.00
51239;BME280;38154;47.548;18.828;2023-04-27T00:35:47;98908.81;;;1.52;100.00
51239;BME280;38154;47.548;18.828;2023-04-27T00:41:06;98903.44;;;1.45;100.00
51239;BME280;38154;47.548;18.828;2023-04-27T00:43:32;98891.97;;;1.37;100.00
51239;BME280;38154;47.548;18.828;2023-04-27T00:46:05;98901.19;;;1.32;100.00
51239;BME280;38154;47.548;18.828;2023-04-27T00:48:31;98893.47;;;1.32;100.00
51239;BME280;38154;47.548;18.828;2023-04-27T00:50:56;98896.81;;;1.29;100.00
51239;BME280;38154;47.548;18.828;2023-04-27T00:53:22;98898.81;;;1.37;100.00
51239;BME280;38154;47.548;18.828;2023-04-27T00:55:48;98900.06;;;1.46;100.00
51239;BME280;38154;47.548;18.828;2023-04-27T00:58:14;98888.44;;;1.56;100.00
51239;BME280;38154;47.548;18.828;2023-04-27T01:00:40;98896.37;;;1.62;100.00
51239;BME280;38154;47.548;18.828;2023-04-27T01:03:06;98889.50;;;1.61;100.00
51239;BME280;38154;47.548;18.828;2023-04-27T01:05:32;98891.47;;;1.69;100.00
51239;BME280;38154;47.548;18.828;2023-04-27T01:07:58;98887.91;;;1.65;100.00
51239;BME280;38154;47.548;18.828;2023-04-27T01:10:24;98889.31;;;1.57;100.00
51239;BME280;38154;47.548;18.828;2023-04-27T01:12:49;98889.13;;;1.52;100.00
51239;BME280;38154;47.548;18.828;2023-04-27T01:15:15;98890.06;;;1.54;100.00
51239;BME280;38154;47.548;18.828;2023-04-27T01:17:41;98896.78;;;1.51;100.00
51239;BME280;38154;47.548;18.828;2023-04-27T01:20:07;98892.88;;;1.60;100.00
51239;BME280;38154;47.548;18.828;2023-04-27T01:22:36;98887.19;;;1.69;100.00
51239;BME280;38154;47.548;18.828;2023-04-27T01:25:02;98893.91;;;1.65;100.00
51239;BME280;38154;47.548;18.828;2023-04-27T01:27:28;98899.12;;;1.44;100.00
51239;BME280;38154;47.548;18.828;2023-04-27T01:29:53;98900.38;;;1.33;100.00
51239;BME280;38154;47.548;18.828;2023-04-27T01:32:19;98907.75;;;1.25;100.00
51239;BME280;38154;47.548;18.828;2023-04-27T01:34:45;98903.22;;;1.18;100.00
51239;BME280;38154;47.548;18.828;2023-04-27T01:37:11;98914.28;;;1.17;100.00
51239;BME280;38154;47.548;18.828;2023-04-27T01:39:36;98914.13;;;1.13;100.00
51239;BME280;38154;47.548;18.828;2023-04-27T01:42:02;98920.75;;;1.07;100.00
51239;BME280;38154;47.548;18.828;2023-04-27T01:44:28;98913.72;;;1.03;100.00
51239;BME280;38154;47.548;18.828;2023-04-27T01:46:54;98915.03;;;0.93;100.00
51239;BME280;38154;47.548;18.828;2023-04-27T01:49:19;98916.47;;;0.87;100.00
51239;BME280;38154;47.548;18.828;2023-04-27T01:51:45;98916.28;;;0.82;100.00
51239;BME280;38154;47.548;18.828;2023-04-27T01:54:11;98909.88;;;0.72;100.00
51239;BME280;38154;47.548;18.828;2023-04-27T01:56:36;98914.19;;;0.73;100.00
51239;BME280;38154;47.548;18.828;2023-04-27T01:59:02;98909.81;;;0.71;100.00
51239;BME280;38154;47.548;18.828;2023-04-27T02:01:28;98909.25;;;0.78;100.00
51239;BME280;38154;47.548;18.828;2023-04-27T02:03:55;98910.06;;;0.77;100.00
51239;BME280;38154;47.548;18.828;2023-04-27T02:06:21;98912.59;;;0.76;100.00
51239;BME280;38154;47.548;18.828;2023-04-27T02:08:46;98912.13;;;0.65;100.00
51239;BME280;38154;47.548;18.828;2023-04-27T02:11:13;98908.53;;;0.61;100.00
51239;BME280;38154;47.548;18.828;2023-04-27T02:13:38;98919.94;;;0.68;100.00
51239;BME280;38154;47.548;18.828;2023-04-27T02:16:04;98925.72;;;0.83;100.00
51239;BME280;38154;47.548;18.828;2023-04-27T02:18:30;98934.22;;;0.61;100.00
51239;BME280;38154;47.548;18.828;2023-04-27T02:20:57;98930.03;;;0.44;100.00
51239;BME280;38154;47.548;18.828;2023-04-27T02:23:22;98935.38;;;0.29;100.00
51239;BME280;38154;47.548;18.828;2023-04-27T02:25:48;98939.66;;;0.30;100.00
51239;BME280;38154;47.548;18.828;2023-04-27T02:28:14;98935.22;;;0.65;100.00
51239;BME280;38154;47.548;18.828;2023-04-27T02:30:39;98938.25;;;0.56;100.00
51239;BME280;38154;47.548;18.828;2023-04-27T02:33:05;98942.84;;;0.63;100.00
51239;BME280;38154;47.548;18.828;2023-04-27T02:35:31;98949.75;;;0.64;100.00
51239;BME280;38154;47.548;18.828;2023-04-27T02:37:57;98938.81;;;0.49;100.00
51239;BME280;38154;47.548;18.828;2023-04-27T02:40:23;98940.09;;;0.39;100.00
51239;BME280;38154;47.548;18.828;2023-04-27T02:42:49;98951.91;;;0.35;100.00
51239;BME280;38154;47.548;18.828;2023-04-27T02:45:15;98951.75;;;0.32;100.00
51239;BME280;38154;47.548;18.828;2023-04-27T02:47:41;98946.12;;;0.22;100.00
51239;BME280;38154;47.548;18.828;2023-04-27T02:50:07;98947.69;;;0.18;100.00
51239;BME280;38154;47.548;18.828;2023-04-27T02:52:33;98956.28;;;0.18;100.00
51239;BME280;38154;47.548;18.828;2023-04-27T02:54:58;98951.94;;;0.17;100.00
51239;BME280;38154;47.548;18.828;2023-04-27T02:57:24;98962.06;;;0.14;100.00
51239;BME280;38154;47.548;18.828;2023-04-27T02:59:50;98961.78;;;0.08;100.00
51239;BME280;38154;47.548;18.828;2023-04-27T03:02:15;98968.31;;;0.02;100.00
51239;BME280;38154;47.548;18.828;2023-04-27T03:04:41;98969.72;;;-0.05;100.00
51239;BME280;38154;47.548;18.828;2023-04-27T03:07:07;98962.09;;;-0.04;100.00
51239;BME280;38154;47.548;18.828;2023-04-27T03:09:33;98970.00;;;0.01;100.00
51239;BME280;38154;47.548;18.828;2023-04-27T03:11:59;98972.09;;;0.10;100.00
51239;BME280;38154;47.548;18.828;2023-04-27T03:14:24;98972.25;;;0.13;100.00
51239;BME280;38154;47.548;18.828;2023-04-27T03:16:50;98966.97;;;0.10;100.00
51239;BME280;38154;47.548;18.828;2023-04-27T03:19:16;98959.28;;;0.10;100.00
51239;BME280;38154;47.548;18.828;2023-04-27T03:21:42;98966.47;;;0.17;100.00
51239;BME280;38154;47.548;18.828;2023-04-27T03:24:07;98968.41;;;0.23;100.00
51239;BME280;38154;47.548;18.828;2023-04-27T03:26:33;98969.91;;;0.17;100.00
51239;BME280;38154;47.548;18.828;2023-04-27T03:28:58;98972.94;;;0.09;100.00
51239;BME280;38154;47.548;18.828;2023-04-27T03:31:25;98973.00;;;0.10;100.00
51239;BME280;38154;47.548;18.828;2023-04-27T03:33:51;98982.56;;;0.14;100.00
51239;BME280;38154;47.548;18.828;2023-04-27T03:36:16;98980.75;;;0.12;100.00
51239;BME280;38154;47.548;18.828;2023-04-27T03:38:42;98986.63;;;0.09;100.00
51239;BME280;38154;47.548;18.828;2023-04-27T03:41:08;98991.75;;;0.09;100.00
51239;BME280;38154;47.548;18.828;2023-04-27T03:43:33;98991.12;;;0.15;100.00
51239;BME280;38154;47.548;18.828;2023-04-27T03:45:59;98989.81;;;0.23;100.00
51239;BME280;38154;47.548;18.828;2023-04-27T03:48:25;98983.44;;;0.15;100.00
51239;BME280;38154;47.548;18.828;2023-04-27T03:50:51;98991.66;;;0.08;100.00
51239;BME280;38154;47.548;18.828;2023-04-27T03:53:16;98999.88;;;0.18;100.00
51239;BME280;38154;47.548;18.828;2023-04-27T03:55:42;98989.81;;;0.23;100.00
51239;BME280;38154;47.548;18.828;2023-04-27T03:58:08;98999.25;;;0.24;100.00
51239;BME280;38154;47.548;18.828;2023-04-27T04:00:37;99000.22;;;0.26;100.00
51239;BME280;38154;47.548;18.828;2023-04-27T04:03:03;98998.81;;;0.33;100.00
51239;BME280;38154;47.548;18.828;2023-04-27T04:05:29;98997.25;;;0.36;100.00
51239;BME280;38154;47.548;18.828;2023-04-27T04:07:55;98999.75;;;0.35;100.00
51239;BME280;38154;47.548;18.828;2023-04-27T04:10:21;99005.59;;;0.50;100.00
51239;BME280;38154;47.548;18.828;2023-04-27T04:12:47;99015.31;;;0.58;100.00
51239;BME280;38154;47.548;18.828;2023-04-27T04:15:13;99011.72;;;0.73;100.00
51239;BME280;38154;47.548;18.828;2023-04-27T04:17:39;99017.47;;;0.87;100.00
51239;BME280;38154;47.548;18.828;2023-04-27T04:20:04;99022.12;;;0.96;100.00
51239;BME280;38154;47.548;18.828;2023-04-27T04:22:34;99013.00;;;1.03;100.00
51239;BME280;38154;47.548;18.828;2023-04-27T04:25:00;99014.06;;;1.08;100.00
51239;BME280;38154;47.548;18.828;2023-04-27T04:27:27;99013.31;;;1.10;100.00
51239;BME280;38154;47.548;18.828;2023-04-27T04:29:52;99014.38;;;1.16;100.00
51239;BME280;38154;47.548;18.828;2023-04-27T04:32:18;99014.06;;;1.29;100.00
51239;BME280;38154;47.548;18.828;2023-04-27T04:34:50;99021.62;;;1.45;100.00
51239;BME280;38154;47.548;18.828;2023-04-27T04:37:16;99022.31;;;1.62;100.00
51239;BME280;38154;47.548;18.828;2023-04-27T04:39:43;99027.56;;;1.87;100.00
51239;BME280;38154;47.548;18.828;2023-04-27T04:42:08;99025.72;;;2.05;100.00
51239;BME280;38154;47.548;18.828;2023-04-27T04:44:34;99034.22;;;2.25;100.00
51239;BME280;38154;47.548;18.828;2023-04-27T04:47:00;99038.00;;;2.57;100.00
51239;BME280;38154;47.548;18.828;2023-04-27T04:49:26;99036.59;;;2.90;100.00
51239;BME280;38154;47.548;18.828;2023-04-27T04:51:51;99033.69;;;3.05;100.00
51239;BME280;38154;47.548;18.828;2023-04-27T04:54:17;99029.88;;;3.43;100.00
51239;BME280;38154;47.548;18.828;2023-04-27T04:56:42;99038.16;;;4.13;100.00
51239;BME280;38154;47.548;18.828;2023-04-27T04:59:08;99031.72;;;4.56;100.00
51239;BME280;38154;47.548;18.828;2023-04-27T05:01:34;99031.63;;;4.83;99.31
51239;BME280;38154;47.548;18.828;2023-04-27T05:04:00;99042.28;;;5.28;90.26
51239;BME280;38154;47.548;18.828;2023-04-27T05:06:26;99042.31;;;5.96;89.44
51239;BME280;38154;47.548;18.828;2023-04-27T05:08:52;99045.09;;;6.42;80.82
51239;BME280;38154;47.548;18.828;2023-04-27T05:11:17;99051.06;;;6.38;79.81
51239;BME280;38154;47.548;18.828;2023-04-27T05:13:43;99050.75;;;6.24;80.00
51239;BME280;38154;47.548;18.828;2023-04-27T05:16:09;99050.31;;;6.43;77.06
51239;BME280;38154;47.548;18.828;2023-04-27T05:18:34;99059.25;;;6.56;78.83
51239;BME280;38154;47.548;18.828;2023-04-27T05:21:00;99058.44;;;6.59;78.16
51239;BME280;38154;47.548;18.828;2023-04-27T05:23:26;99065.88;;;6.84;76.23
51239;BME280;38154;47.548;18.828;2023-04-27T05:25:52;99059.62;;;7.16;76.47
51239;BME280;38154;47.548;18.828;2023-04-27T05:28:17;99059.94;;;7.33;73.50
51239;BME280;38154;47.548;18.828;2023-04-27T05:30:43;99064.16;;;7.76;73.48
51239;BME280;38154;47.548;18.828;2023-04-27T05:33:09;99067.28;;;8.09;69.25
51239;BME280;38154;47.548;18.828;2023-04-27T05:35:34;99074.22;;;8.66;70.11
51239;BME280;38154;47.548;18.828;2023-04-27T05:38:00;99069.53;;;9.06;68.11
51239;BME280;38154;47.548;18.828;2023-04-27T05:40:26;99070.72;;;9.30;66.69
51239;BME280;38154;47.548;18.828;2023-04-27T05:42:52;99068.94;;;9.27;66.65
51239;BME280;38154;47.548;18.828;2023-04-27T05:45:18;99069.50;;;9.02;66.73
51239;BME280;38154;47.548;18.828;2023-04-27T05:47:44;99077.41;;;9.11;67.35
51239;BME280;38154;47.548;18.828;2023-04-27T05:50:09;99078.50;;;9.30;66.81
51239;BME280;38154;47.548;18.828;2023-04-27T05:52:35;99084.81;;;9.52;65.14
51239;BME280;38154;47.548;18.828;2023-04-27T05:55:01;99088.50;;;9.73;64.09
51239;BME280;38154;47.548;18.828;2023-04-27T05:57:28;99081.22;;;10.33;62.38
51239;BME280;38154;47.548;18.828;2023-04-27T05:59:54;99083.25;;;10.82;59.58
51239;BME280;38154;47.548;18.828;2023-04-27T06:02:21;99091.16;;;10.99;60.93
51239;BME280;38154;47.548;18.828;2023-04-27T06:04:46;99089.47;;;11.07;59.33
51239;BME280;38154;47.548;18.828;2023-04-27T06:07:13;99096.56;;;11.49;56.06
51239;BME280;38154;47.548;18.828;2023-04-27T06:09:39;99093.87;;;11.25;55.97
51239;BME280;38154;47.548;18.828;2023-04-27T06:12:05;99098.28;;;11.38;56.50
51239;BME280;38154;47.548;18.828;2023-04-27T06:14:31;99100.91;;;13.05;51.71
51239;BME280;38154;47.548;18.828;2023-04-27T06:16:57;99099.97;;;16.00;43.12
51239;BME280;38154;47.548;18.828;2023-04-27T06:19:23;99096.66;;;18.15;35.91
51239;BME280;38154;47.548;18.828;2023-04-27T06:21:49;99105.53;;;19.74;32.83
51239;BME280;38154;47.548;18.828;2023-04-27T06:24:15;99105.28;;;21.15;29.87
51239;BME280;38154;47.548;18.828;2023-04-27T06:26:41;99111.50;;;22.72;27.16
51239;BME280;38154;47.548;18.828;2023-04-27T06:29:06;99116.56;;;22.78;25.42
51239;BME280;38154;47.548;18.828;2023-04-27T06:31:32;99112.06;;;23.40;25.32
51239;BME280;38154;47.548;18.828;2023-04-27T06:33:58;99124.78;;;24.46;22.34
51239;BME280;38154;47.548;18.828;2023-04-27T06:36:25;99128.03;;;25.72;20.30
51239;BME280;38154;47.548;18.828;2023-04-27T06:38:53;99121.22;;;25.66;19.66
51239;BME280;38154;47.548;18.828;2023-04-27T06:41:23;99121.19;;;25.17;19.53
51239;BME280;38154;47.548;18.828;2023-04-27T06:43:49;99131.25;;;24.42;20.00
51239;BME280;38154;47.548;18.828;2023-04-27T06:46:14;99125.00;;;25.62;19.47
51239;BME280;38154;47.548;18.828;2023-04-27T06:48:40;99131.63;;;25.55;21.03
51239;BME280;38154;47.548;18.828;2023-04-27T06:51:06;99124.25;;;25.92;20.99
51239;BME280;38154;47.548;18.828;2023-04-27T06:53:32;99132.13;;;26.57;20.82
51239;BME280;38154;47.548;18.828;2023-04-27T06:55:57;99136.97;;;27.26;19.57
51239;BME280;38154;47.548;18.828;2023-04-27T06:58:23;99136.16;;;27.39;19.42
51239;BME280;38154;47.548;18.828;2023-04-27T07:00:49;99133.84;;;27.48;18.62
51239;BME280;38154;47.548;18.828;2023-04-27T07:03:15;99140.53;;;27.55;18.79
51239;BME280;38154;47.548;18.828;2023-04-27T07:05:41;99136.97;;;27.83;17.94
51239;BME280;38154;47.548;18.828;2023-04-27T07:08:06;99136.50;;;24.43;20.27
51239;BME280;38154;47.548;18.828;2023-04-27T07:10:32;99128.22;;;21.40;24.43
51239;BME280;38154;47.548;18.828;2023-04-27T07:12:57;99129.28;;;19.16;26.01
51239;BME280;38154;47.548;18.828;2023-04-27T07:15:23;99129.81;;;18.61;27.92
51239;BME280;38154;47.548;18.828;2023-04-27T07:17:52;99124.41;;;19.32;26.09
51239;BME280;38154;47.548;18.828;2023-04-27T07:20:20;99136.62;;;21.04;23.80
51239;BME280;38154;47.548;18.828;2023-04-27T07:22:46;99142.75;;;20.52;23.89
51239;BME280;38154;47.548;18.828;2023-04-27T07:25:12;99140.50;;;22.98;21.48
51239;BME280;38154;47.548;18.828;2023-04-27T07:27:37;99150.16;;;24.55;19.92
51239;BME280;38154;47.548;18.828;2023-04-27T07:30:04;99150.84;;;25.46;19.61
51239;BME280;38154;47.548;18.828;2023-04-27T07:32:31;99153.53;;;26.57;18.47
51239;BME280;38154;47.548;18.828;2023-04-27T07:34:57;99152.28;;;26.79;16.70
51239;BME280;38154;47.548;18.828;2023-04-27T07:37:23;99147.66;;;27.11;17.37
51239;BME280;38154;47.548;18.828;2023-04-27T07:39:49;99155.69;;;27.11;17.20
51239;BME280;38154;47.548;18.828;2023-04-27T07:42:19;99151.75;;;24.94;18.05
51239;BME280;38154;47.548;18.828;2023-04-27T07:44:46;99143.16;;;21.19;23.12
51239;BME280;38154;47.548;18.828;2023-04-27T07:47:14;99137.09;;;18.87;25.51
51239;BME280;38154;47.548;18.828;2023-04-27T07:49:40;99142.59;;;21.59;21.92
51239;BME280;38154;47.548;18.828;2023-04-27T07:52:06;99152.00;;;24.16;19.61
51239;BME280;38154;47.548;18.828;2023-04-27T07:54:33;99148.34;;;23.62;20.75
51239;BME280;38154;47.548;18.828;2023-04-27T07:56:59;99152.91;;;24.17;19.61
51239;BME280;38154;47.548;18.828;2023-04-27T07:59:27;99163.66;;;24.87;18.58
51239;BME280;38154;47.548;18.828;2023-04-27T08:01:53;99152.94;;;22.77;21.25
51239;BME280;38154;47.548;18.828;2023-04-27T08:04:18;99155.69;;;20.63;23.21
51239;BME280;38154;47.548;18.828;2023-04-27T08:06:44;99162.28;;;20.78;23.52
51239;BME280;38154;47.548;18.828;2023-04-27T08:09:10;99151.06;;;19.55;24.31
51239;BME280;38154;47.548;18.828;2023-04-27T08:11:36;99147.37;;;17.48;27.24
51239;BME280;38154;47.548;18.828;2023-04-27T08:14:02;99145.72;;;15.88;28.06
51239;BME280;38154;47.548;18.828;2023-04-27T08:16:28;99136.81;;;15.32;30.73
51239;BME280;38154;47.548;18.828;2023-04-27T08:18:53;99151.00;;;18.24;28.95
51239;BME280;38154;47.548;18.828;2023-04-27T08:21:19;99150.75;;;22.22;21.91
51239;BME280;38154;47.548;18.828;2023-04-27T08:23:45;99146.41;;;23.46;21.84
51239;BME280;38154;47.548;18.828;2023-04-27T08:26:14;99155.66;;;24.87;21.42
51239;BME280;38154;47.548;18.828;2023-04-27T08:28:40;99165.13;;;25.45;21.28
51239;BME280;38154;47.548;18.828;2023-04-27T08:31:05;99162.56;;;26.71;19.42
51239;BME280;38154;47.548;18.828;2023-04-27T08:33:31;99164.44;;;27.58;17.13
51239;BME280;38154;47.548;18.828;2023-04-27T08:35:57;99157.56;;;27.68;17.97
51239;BME280;38154;47.548;18.828;2023-04-27T08:38:22;99161.47;;;26.59;19.17
51239;BME280;38154;47.548;18.828;2023-04-27T08:40:48;99148.78;;;26.16;20.36
51239;BME280;38154;47.548;18.828;2023-04-27T08:43:14;99154.97;;;26.17;19.34
51239;BME280;38154;47.548;18.828;2023-04-27T08:45:45;99157.34;;;27.14;19.60
51239;BME280;38154;47.548;18.828;2023-04-27T08:48:12;99173.34;;;27.87;17.68
51239;BME280;38154;47.548;18.828;2023-04-27T08:50:37;99163.91;;;27.08;16.02
51239;BME280;38154;47.548;18.828;2023-04-27T08:53:17;99158.75;;;27.05;18.02
51239;BME280;38154;47.548;18.828;2023-04-27T08:55:43;99147.34;;;26.87;18.16
51239;BME280;38154;47.548;18.828;2023-04-27T08:58:09;99155.91;;;27.23;17.31
51239;BME280;38154;47.548;18.828;2023-04-27T09:00:38;99160.03;;;26.83;16.89
51239;BME280;38154;47.548;18.828;2023-04-27T09:03:05;99159.78;;;26.88;16.18
51239;BME280;38154;47.548;18.828;2023-04-27T09:05:30;99157.09;;;26.42;17.03
51239;BME280;38154;47.548;18.828;2023-04-27T09:07:57;99147.53;;;26.22;17.21
51239;BME280;38154;47.548;18.828;2023-04-27T09:10:22;99149.84;;;27.05;16.64
51239;BME280;38154;47.548;18.828;2023-04-27T09:12:55;99149.22;;;27.15;17.28
51239;BME280;38154;47.548;18.828;2023-04-27T09:15:21;99147.87;;;27.23;16.97
51239;BME280;38154;47.548;18.828;2023-04-27T09:17:51;99149.22;;;27.73;17.07
51239;BME280;38154;47.548;18.828;2023-04-27T09:20:17;99143.78;;;27.89;16.93
51239;BME280;38154;47.548;18.828;2023-04-27T09:22:52;99149.59;;;27.24;17.59
51239;BME280;38154;47.548;18.828;2023-04-27T09:27:48;99152.56;;;27.76;15.41
51239;BME280;38154;47.548;18.828;2023-04-27T09:30:13;99148.75;;;27.95;16.87
51239;BME280;38154;47.548;18.828;2023-04-27T09:32:47;99133.34;;;27.70;15.54
51239;BME280;38154;47.548;18.828;2023-04-27T09:35:19;99142.31;;;26.67;16.59
51239;BME280;38154;47.548;18.828;2023-04-27T09:37:48;99134.91;;;27.60;15.52
51239;BME280;38154;47.548;18.828;2023-04-27T09:40:13;99134.69;;;26.28;16.60
51239;BME280;38154;47.548;18.828;2023-04-27T09:42:39;99131.81;;;26.63;18.33
51239;BME280;38154;47.548;18.828;2023-04-27T09:45:05;99127.09;;;25.89;18.94
51239;BME280;38154;47.548;18.828;2023-04-27T09:47:32;99130.06;;;26.00;17.95
51239;BME280;38154;47.548;18.828;2023-04-27T09:49:58;99122.59;;;26.83;16.86
51239;BME280;38154;47.548;18.828;2023-04-27T09:52:24;99137.31;;;27.35;16.51
51239;BME280;38154;47.548;18.828;2023-04-27T09:54:51;99126.72;;;27.90;18.39
51239;BME280;38154;47.548;18.828;2023-04-27T09:57:22;99131.78;;;27.80;16.62
51239;BME280;38154;47.548;18.828;2023-04-27T10:02:18;99117.09;;;27.15;17.23
51239;BME280;38154;47.548;18.828;2023-04-27T10:07:46;99114.41;;;25.61;19.29
51239;BME280;38154;47.548;18.828;2023-04-27T10:10:16;99116.06;;;25.63;18.80
51239;BME280;38154;47.548;18.828;2023-04-27T10:12:54;99113.50;;;25.11;18.85
51239;BME280;38154;47.548;18.828;2023-04-27T10:15:24;99112.25;;;25.67;18.60
51239;BME280;38154;47.548;18.828;2023-04-27T10:17:50;99122.84;;;26.79;18.03
51239;BME280;38154;47.548;18.828;2023-04-27T10:20:33;99113.81;;;27.25;17.67
51239;BME280;38154;47.548;18.828;2023-04-27T10:22:59;99110.47;;;26.92;19.25
51239;BME280;38154;47.548;18.828;2023-04-27T10:25:29;99110.31;;;26.79;17.85
51239;BME280;38154;47.548;18.828;2023-04-27T10:30:24;99109.44;;;25.86;19.67
51239;BME280;38154;47.548;18.828;2023-04-27T10:32:51;99116.75;;;25.83;18.79
51239;BME280;38154;47.548;18.828;2023-04-27T10:35:17;99123.66;;;26.35;18.62
51239;BME280;38154;47.548;18.828;2023-04-27T10:37:44;99117.28;;;26.21;19.05
51239;BME280;38154;47.548;18.828;2023-04-27T10:40:11;99114.53;;;25.91;18.99
51239;BME280;38154;47.548;18.828;2023-04-27T10:42:39;99114.84;;;26.33;18.83
51239;BME280;38154;47.548;18.828;2023-04-27T10:45:05;99119.81;;;26.55;17.59
51239;BME280;38154;47.548;18.828;2023-04-27T10:47:38;99118.44;;;26.01;19.09
51239;BME280;38154;47.548;18.828;2023-04-27T10:50:04;99121.59;;;25.76;18.76
51239;BME280;38154;47.548;18.828;2023-04-27T10:52:31;99111.56;;;25.64;19.66
51239;BME280;38154;47.548;18.828;2023-04-27T10:54:56;99115.72;;;24.85;21.37
51239;BME280;38154;47.548;18.828;2023-04-27T10:57:22;99111.41;;;24.65;19.65
51239;BME280;38154;47.548;18.828;2023-04-27T10:59:49;99112.31;;;24.29;20.81
51239;BME280;38154;47.548;18.828;2023-04-27T11:02:15;99116.44;;;24.00;19.71
51239;BME280;38154;47.548;18.828;2023-04-27T11:04:41;99116.28;;;23.84;20.38
51239;BME280;38154;47.548;18.828;2023-04-27T11:07:07;99112.38;;;23.91;20.59
51239;BME280;38154;47.548;18.828;2023-04-27T11:09:34;99109.66;;;24.47;19.77
51239;BME280;38154;47.548;18.828;2023-04-27T11:12:01;99109.16;;;24.92;17.79
51239;BME280;38154;47.548;18.828;2023-04-27T11:14:26;99101.09;;;24.22;20.71
51239;BME280;38154;47.548;18.828;2023-04-27T11:16:53;99100.16;;;23.87;20.09
51239;BME280;38154;47.548;18.828;2023-04-27T11:19:19;99092.56;;;23.21;21.04
51239;BME280;38154;47.548;18.828;2023-04-27T11:21:44;99102.88;;;22.24;22.52
51239;BME280;38154;47.548;18.828;2023-04-27T11:24:10;99102.06;;;22.85;23.10
51239;BME280;38154;47.548;18.828;2023-04-27T11:26:36;99108.38;;;23.82;21.55
51239;BME280;38154;47.548;18.828;2023-04-27T11:29:02;99109.94;;;24.05;21.26
51239;BME280;38154;47.548;18.828;2023-04-27T11:31:40;99101.09;;;24.22;20.11
51239;BME280;38154;47.548;18.828;2023-04-27T11:34:06;99105.06;;;24.50;20.72
51239;BME280;38154;47.548;18.828;2023-04-27T11:36:32;99097.19;;;24.30;21.15
51239;BME280;38154;47.548;18.828;2023-04-27T11:38:58;99100.84;;;23.33;20.98
51239;BME280;38154;47.548;18.828;2023-04-27T11:41:36;99096.69;;;23.28;22.05
51239;BME280;38154;47.548;18.828;2023-04-27T11:44:03;99106.59;;;22.83;21.55
51239;BME280;38154;47.548;18.828;2023-04-27T11:46:29;99105.09;;;21.43;22.34
51239;BME280;38154;47.548;18.828;2023-04-27T11:49:00;99108.09;;;21.81;22.09
51239;BME280;38154;47.548;18.828;2023-04-27T11:51:25;99098.25;;;22.07;20.48
51239;BME280;38154;47.548;18.828;2023-04-27T11:53:53;99097.44;;;22.49;20.36
51239;BME280;38154;47.548;18.828;2023-04-27T11:56:19;99101.53;;;22.77;21.00
51239;BME280;38154;47.548;18.828;2023-04-27T11:58:45;99086.44;;;22.14;22.62
51239;BME280;38154;47.548;18.828;2023-04-27T12:01:11;99096.72;;;22.22;22.82
51239;BME280;38154;47.548;18.828;2023-04-27T12:03:37;99097.94;;;21.47;23.86
51239;BME280;38154;47.548;18.828;2023-04-27T12:06:03;99088.22;;;20.20;25.28
51239;BME280;38154;47.548;18.828;2023-04-27T12:08:28;99086.50;;;19.62;25.27
51239;BME280;38154;47.548;18.828;2023-04-27T12:10:54;99079.16;;;19.42;25.67
51239;BME280;38154;47.548;18.828;2023-04-27T12:13:20;99084.34;;;19.75;26.51
51239;BME280;38154;47.548;18.828;2023-04-27T12:15:45;99086.81;;;19.52;27.57
51239;BME280;38154;47.548;18.828;2023-04-27T12:18:11;99087.47;;;19.28;25.34
51239;BME280;38154;47.548;18.828;2023-04-27T12:20:37;99079.34;;;19.36;25.80
51239;BME280;38154;47.548;18.828;2023-04-27T12:23:02;99085.03;;;19.52;25.80
51239;BME280;38154;47.548;18.828;2023-04-27T12:25:28;99075.72;;;19.39;26.92
51239;BME280;38154;47.548;18.828;2023-04-27T12:27:54;99069.78;;;18.68;27.25
51239;BME280;38154;47.548;18.828;2023-04-27T12:30:21;99075.66;;;18.45;28.15
51239;BME280;38154;47.548;18.828;2023-04-27T12:32:47;99076.19;;;18.59;27.75
51239;BME280;38154;47.548;18.828;2023-04-27T12:35:13;99077.53;;;18.74;27.07
51239;BME280;38154;47.548;18.828;2023-04-27T12:37:38;99069.69;;;18.71;26.39
51239;BME280;38154;47.548;18.828;2023-04-27T12:40:04;99072.28;;;18.40;26.13
51239;BME280;38154;47.548;18.828;2023-04-27T12:42:33;99068.50;;;18.15;27.64
51239;BME280;38154;47.548;18.828;2023-04-27T12:44:59;99069.19;;;17.85;27.65
51239;BME280;38154;47.548;18.828;2023-04-27T12:47:25;99062.72;;;17.60;29.17
51239;BME280;38154;47.548;18.828;2023-04-27T12:49:51;99063.97;;;17.44;27.61
51239;BME280;38154;47.548;18.828;2023-04-27T12:52:17;99059.75;;;17.35;29.57
51239;BME280;38154;47.548;18.828;2023-04-27T12:54:43;99057.16;;;17.34;29.05
51239;BME280;38154;47.548;18.828;2023-04-27T12:57:08;99060.38;;;17.06;28.76
51239;BME280;38154;47.548;18.828;2023-04-27T12:59:34;99068.16;;;16.65;30.51